Time;durP1;ratioP1;P1;durP2;ratioP2;P2;SDS_P1;SDS_P2;PMS_P1;PMS_P2;Temp;Humidity;BMP_temperature;BMP_pressure;BME280_temperature;BME280_humidity;BME280_pressure;Samples;Min_cycle;Max_cycle;Signal;HPM_P1;HPM_P2
2023/05/12 00:02:08;;;;;;;15.50;13.98;;;;;;;12.50;100.00;101508.53;5026548;28;20033;-75
2023/05/12 00:04:35;;;;;;;14.75;13.25;;;;;;;12.46;100.00;101512.34;5031433;28;20021;-75
2023/05/12 00:07:02;;;;;;;12.52;10.65;;;;;;;12.36;100.00;101506.84;5028319;28;20486;-75
2023/05/12 00:09:28;;;;;;;13.13;10.57;;;;;;;12.34;100.00;101511.38;5024150;28;20045;-75
2023/05/12 00:11:54;;;;;;;11.38;10.18;;;;;;;12.30;100.00;101507.28;5029181;28;20053;-75
2023/05/12 00:14:20;;;;;;;13.65;9.60;;;;;;;12.24;100.00;101505.09;5026295;28;20823;-75
2023/05/12 00:16:50;;;;;;;11.00;9.50;;;;;;;12.20;100.00;101508.88;5028554;28;20032;-75
2023/05/12 00:19:17;;;;;;;10.77;9.60;;;;;;;12.16;100.00;101510.06;5029429;28;20097;-75
2023/05/12 00:21:43;;;;;;;11.43;10.00;;;;;;;12.16;100.00;101507.41;5028974;28;20033;-75
2023/05/12 00:24:09;;;;;;;13.90;10.60;;;;;;;12.16;100.00;101502.97;5028114;28;20030;-75
2023/05/12 00:26:35;;;;;;;13.68;11.63;;;;;;;12.18;100.00;101498.44;5039677;28;20025;-75
2023/05/12 00:29:00;;;;;;;13.98;10.80;;;;;;;12.20;100.00;101503.63;5048467;28;20024;-75
2023/05/12 00:31:25;;;;;;;11.43;10.18;;;;;;;12.20;100.00;101493.06;5029830;28;20040;-75
2023/05/12 00:33:51;;;;;;;14.43;11.07;;;;;;;12.18;100.00;101494.97;5028956;28;20030;-75
2023/05/12 00:36:16;;;;;;;14.20;11.38;;;;;;;12.20;100.00;101493.06;5028925;28;20044;-75
2023/05/12 00:38:46;;;;;;;12.70;11.30;;;;;;;12.21;100.00;101505.31;5029552;28;20021;-75
2023/05/12 00:41:12;;;;;;;11.98;10.73;;;;;;;12.15;100.00;101501.31;5027793;28;20120;-75
2023/05/12 00:43:37;;;;;;;12.35;10.90;;;;;;;12.13;100.00;101491.81;5024113;28;20129;-75
2023/05/12 00:46:07;;;;;;;11.38;9.32;;;;;;;12.09;100.00;101500.88;5028878;28;20068;-75
2023/05/12 00:48:33;;;;;;;10.65;9.45;;;;;;;12.04;100.00;101495.09;5009803;28;20029;-76
2023/05/12 00:51:03;;;;;;;10.80;9.70;;;;;;;11.95;100.00;101499.19;5017869;28;20504;-75
2023/05/12 00:53:30;;;;;;;10.40;9.40;;;;;;;11.96;100.00;101494.75;5028261;28;20025;-76
2023/05/12 00:55:56;;;;;;;10.40;9.40;;;;;;;11.87;100.00;101490.97;5027802;28;20033;-76
2023/05/12 00:58:22;;;;;;;12.60;9.40;;;;;;;11.88;100.00;101493.50;5028560;28;20024;-75
2023/05/12 01:00:48;;;;;;;11.02;9.73;;;;;;;11.85;100.00;101493.72;5027505;28;20084;-75
2023/05/12 01:03:14;;;;;;;10.32;9.40;;;;;;;11.79;100.00;101498.56;5011242;28;20026;-76
2023/05/12 01:06:04;;;;;;;16.42;10.65;;;;;;;11.81;100.00;101491.41;5011268;28;20030;-76
2023/05/12 01:08:32;;;;;;;12.40;10.57;;;;;;;11.78;100.00;101492.47;5041618;28;20032;-75
2023/05/12 01:10:57;;;;;;;11.85;9.77;;;;;;;11.77;100.00;101488.09;5050070;28;20408;-76
2023/05/12 01:13:22;;;;;;;11.77;10.35;;;;;;;11.76;100.00;101482.94;5040086;28;20029;-75
2023/05/12 01:15:52;;;;;;;11.52;10.40;;;;;;;11.72;100.00;101486.72;5027043;28;20037;-76
2023/05/12 01:18:20;;;;;;;14.02;11.02;;;;;;;11.73;100.00;101486.63;5019453;28;20030;-76
2023/05/12 01:20:52;;;;;;;12.20;10.38;;;;;;;11.72;100.00;101481.47;5034328;28;20029;-76
2023/05/12 01:23:22;;;;;;;14.02;10.25;;;;;;;11.70;100.00;101481.56;5026486;28;20026;-76
2023/05/12 01:25:49;;;;;;;10.95;9.77;;;;;;;11.71;100.00;101477.13;5035905;28;20104;-75
2023/05/12 01:28:15;;;;;;;11.18;10.10;;;;;;;11.67;100.00;101481.78;5031001;28;20504;-76
2023/05/12 01:30:42;;;;;;;10.98;9.88;;;;;;;11.72;100.00;101477.03;5032796;28;20051;-76
2023/05/12 01:33:08;;;;;;;11.70;10.63;;;;;;;11.72;100.00;101470.91;5031684;28;20037;-76
2023/05/12 01:35:33;;;;;;;19.67;11.55;;;;;;;11.67;100.00;101467.75;5020121;28;20389;-76
2023/05/12 01:38:03;;;;;;;13.45;10.93;;;;;;;11.68;100.00;101472.91;5013836;28;20018;-76
2023/05/12 01:40:32;;;;;;;12.40;11.10;;;;;;;11.66;100.00;101468.72;5030359;28;20076;-76
2023/05/12 01:42:57;;;;;;;13.07;11.38;;;;;;;11.65;100.00;101469.66;5033598;28;20049;-76
2023/05/12 01:45:23;;;;;;;12.52;11.20;;;;;;;11.63;100.00;101469.75;5033138;28;20040;-76
2023/05/12 01:47:48;;;;;;;13.25;10.95;;;;;;;11.61;100.00;101469.03;5030339;28;20896;-75
2023/05/12 01:50:15;;;;;;;13.68;11.35;;;;;;;11.58;100.00;101469.19;5031749;28;20039;-75
2023/05/12 01:52:40;;;;;;;15.20;10.93;;;;;;;11.55;100.00;101469.41;5017102;28;20030;-75
2023/05/12 01:55:07;;;;;;;13.63;11.05;;;;;;;11.56;100.00;101463.19;5023910;28;20136;-75
2023/05/12 01:57:33;;;;;;;12.18;10.88;;;;;;;11.52;100.00;101467.84;5031545;28;20457;-75
2023/05/12 01:59:59;;;;;;;12.90;10.93;;;;;;;11.51;100.00;101460.03;5026013;28;20049;-75
2023/05/12 02:02:24;;;;;;;13.07;10.13;;;;;;;11.51;100.00;101460.88;5030063;28;20044;-75
2023/05/12 02:04:51;;;;;;;11.73;9.55;;;;;;;11.41;100.00;101462.44;5030979;28;20363;-75
2023/05/12 02:07:16;;;;;;;10.70;9.23;;;;;;;11.42;100.00;101463.28;5035140;28;20025;-75
2023/05/12 02:09:42;;;;;;;10.45;9.35;;;;;;;11.38;100.00;101456.56;5040628;28;20033;-75
2023/05/12 02:12:08;;;;;;;10.13;8.98;;;;;;;11.35;100.00;101456.75;5029828;28;20060;-76
2023/05/12 02:14:33;;;;;;;10.73;8.77;;;;;;;11.30;100.00;101457.06;5032897;28;20056;-75
2023/05/12 02:17:01;;;;;;;9.13;8.02;;;;;;;11.33;100.00;101453.38;5031790;28;20033;-75
2023/05/12 02:19:26;;;;;;;10.05;8.82;;;;;;;11.26;100.00;101442.41;5031874;28;20017;-75
2023/05/12 02:21:52;;;;;;;8.82;7.95;;;;;;;11.24;100.00;101444.31;5029655;28;21087;-75
2023/05/12 02:24:17;;;;;;;10.07;7.90;;;;;;;11.23;100.00;101438.19;5029896;28;20036;-75
2023/05/12 02:26:44;;;;;;;9.98;8.48;;;;;;;11.21;100.00;101440.09;5029641;28;20029;-75
2023/05/12 02:29:10;;;;;;;10.60;8.55;;;;;;;11.22;100.00;101441.78;5032026;28;20033;-75
2023/05/12 02:31:35;;;;;;;10.48;8.07;;;;;;;11.20;100.00;101441.00;5031358;28;20104;-75
2023/05/12 02:34:01;;;;;;;9.55;8.00;;;;;;;11.22;100.00;101436.53;5030795;28;20031;-75
2023/05/12 02:36:26;;;;;;;11.55;8.10;;;;;;;11.20;100.00;101433.13;5031291;28;20473;-75
2023/05/12 02:38:51;;;;;;;9.00;8.10;;;;;;;11.18;100.00;101435.00;5032126;28;20359;-75
2023/05/12 02:41:17;;;;;;;9.98;8.27;;;;;;;11.21;100.00;101434.84;5026916;28;20496;-74
2023/05/12 02:43:42;;;;;;;11.15;9.13;;;;;;;11.19;100.00;101426.16;5031184;28;20055;-75
2023/05/12 02:46:08;;;;;;;9.32;8.00;;;;;;;11.15;100.00;101429.94;5031130;28;20017;-75
2023/05/12 02:48:33;;;;;;;10.32;7.97;;;;;;;11.18;100.00;101424.47;5027649;28;20495;-75
2023/05/12 02:51:00;;;;;;;8.52;7.40;;;;;;;11.15;100.00;101419.41;5032726;28;20091;-75
2023/05/12 02:53:26;;;;;;;9.63;7.72;;;;;;;11.17;100.00;101419.31;5027734;28;20032;-75
2023/05/12 02:55:54;;;;;;;8.80;7.25;;;;;;;11.21;100.00;101426.94;5029493;28;20025;-76
2023/05/12 02:58:20;;;;;;;7.30;6.60;;;;;;;11.21;100.00;101424.28;5030299;28;20532;-75
2023/05/12 03:00:46;;;;;;;7.50;6.70;;;;;;;11.18;100.00;101421.84;5029850;28;20551;-76
2023/05/12 03:03:11;;;;;;;8.73;6.72;;;;;;;11.15;100.00;101413.31;5029801;28;20041;-75
2023/05/12 03:05:38;;;;;;;7.05;5.97;;;;;;;11.16;100.00;101409.72;5029850;28;20166;-76
2023/05/12 03:08:04;;;;;;;8.32;6.18;;;;;;;11.14;100.00;101408.97;5029390;28;20036;-75
2023/05/12 03:10:30;;;;;;;7.03;6.30;;;;;;;11.13;100.00;101405.50;5023903;28;20030;-75
2023/05/12 03:12:56;;;;;;;6.25;5.65;;;;;;;11.12;100.00;101414.34;5019498;28;20027;-75
2023/05/12 03:15:21;;;;;;;6.80;5.53;;;;;;;11.09;100.00;101405.81;5024546;28;20029;-75
2023/05/12 03:17:47;;;;;;;5.80;5.20;;;;;;;11.07;100.00;101405.91;5024022;28;20041;-76
2023/05/12 03:20:12;;;;;;;9.90;5.60;;;;;;;11.08;100.00;101401.50;5031029;28;20533;-76
2023/05/12 03:22:38;;;;;;;7.40;5.43;;;;;;;11.09;100.00;101404.03;5030388;28;20032;-75
2023/05/12 03:25:06;;;;;;;7.63;5.00;;;;;;;11.08;100.00;101391.81;5031459;28;20032;-76
2023/05/12 03:27:31;;;;;;;5.20;4.70;;;;;;;11.06;100.00;101393.69;5030739;28;20386;-76
2023/05/12 03:29:59;;;;;;;5.20;4.50;;;;;;;11.07;100.00;101386.66;5019437;28;20104;-76
2023/05/12 03:32:26;;;;;;;5.60;4.93;;;;;;;11.05;100.00;101389.38;5029377;28;20504;-76
2023/05/12 03:34:51;;;;;;;5.30;4.80;;;;;;;11.03;100.00;101393.91;5029986;28;20371;-76
2023/05/12 03:37:16;;;;;;;5.57;4.97;;;;;;;11.03;100.00;101382.53;5027559;28;20088;-76
2023/05/12 03:39:42;;;;;;;7.00;5.38;;;;;;;11.06;100.00;101388.44;5031771;28;20025;-76
2023/05/12 03:42:07;;;;;;;6.55;5.82;;;;;;;11.06;100.00;101385.81;5030493;28;20498;-76
2023/05/12 03:44:32;;;;;;;7.63;6.05;;;;;;;11.06;100.00;101385.81;5023607;28;20097;-76
2023/05/12 03:46:58;;;;;;;12.23;6.70;;;;;;;11.04;100.00;101385.06;5029477;28;20025;-80
2023/05/12 03:49:23;;;;;;;9.52;6.50;;;;;;;11.06;100.00;101385.81;5028484;28;20021;-77
2023/05/12 03:51:49;;;;;;;10.80;7.43;;;;;;;11.05;100.00;101375.38;5029351;28;20092;-76
2023/05/12 03:54:14;;;;;;;10.25;7.53;;;;;;;11.05;100.00;101375.38;5030708;28;20064;-76
2023/05/12 03:56:39;;;;;;;10.65;8.45;;;;;;;11.04;100.00;101373.69;5029967;28;20139;-75
2023/05/12 03:59:05;;;;;;;14.35;9.15;;;;;;;11.01;100.00;101379.16;5029903;28;20474;-76
2023/05/12 04:01:31;;;;;;;11.40;9.35;;;;;;;11.01;100.00;101381.78;5027486;28;20692;-76
2023/05/12 04:03:57;;;;;;;12.55;9.70;;;;;;;10.98;100.00;101374.94;5012354;28;20083;-76
2023/05/12 04:06:22;;;;;;;14.70;10.45;;;;;;;10.97;100.00;101373.25;5017295;28;20104;-76
2023/05/12 04:08:48;;;;;;;13.07;9.80;;;;;;;10.98;100.00;101385.47;5046271;28;20087;-76
2023/05/12 04:11:13;;;;;;;14.57;10.27;;;;;;;10.98;100.00;101370.53;5048983;28;20373;-76
2023/05/12 04:13:39;;;;;;;14.70;10.80;;;;;;;10.97;100.00;101368.84;5038933;28;20044;-76
2023/05/12 04:16:04;;;;;;;14.82;11.27;;;;;;;10.93;100.00;101372.63;5030373;28;20108;-76
2023/05/12 04:18:30;;;;;;;18.58;11.25;;;;;;;10.94;100.00;101365.56;5024451;28;20568;-75
2023/05/12 04:20:56;;;;;;;19.15;11.98;;;;;;;10.97;100.00;101368.84;5010801;28;20057;-75
2023/05/12 04:23:22;;;;;;;18.20;12.77;;;;;;;10.95;100.00;101372.53;5014957;28;20040;-75
2023/05/12 04:25:47;;;;;;;18.10;13.25;;;;;;;10.95;100.00;101367.25;5028165;28;20029;-76
2023/05/12 04:28:13;;;;;;;21.35;14.23;;;;;;;10.97;100.00;101368.00;5029462;28;20028;-76
2023/05/12 04:30:39;;;;;;;25.13;15.48;;;;;;;10.94;100.00;101368.19;5030192;28;20053;-76
2023/05/12 04:33:05;;;;;;;24.23;15.57;;;;;;;10.93;100.00;101369.16;5028261;28;20026;-76
2023/05/12 04:35:31;;;;;;;27.17;16.35;;;;;;;10.93;100.00;101363.88;5024174;28;20045;-76
2023/05/12 04:37:56;;;;;;;29.60;17.45;;;;;;;10.97;100.00;101371.47;5015127;28;20021;-76
2023/05/12 04:40:22;;;;;;;26.30;16.42;;;;;;;10.94;100.00;101368.19;5025321;28;20033;-76
2023/05/12 04:42:47;;;;;;;28.45;17.58;;;;;;;10.95;100.00;101372.53;5030231;28;20056;-76
2023/05/12 04:45:12;;;;;;;25.90;17.42;;;;;;;10.96;100.00;101363.69;5030559;28;20032;-76
2023/05/12 04:47:38;;;;;;;30.02;18.27;;;;;;;10.97;100.00;101368.00;5024082;28;20030;-76
2023/05/12 04:50:09;;;;;;;27.30;18.02;;;;;;;10.98;100.00;101367.03;5008869;28;20029;-76
2023/05/12 04:52:34;;;;;;;33.58;21.15;;;;;;;10.99;100.00;101371.38;5013313;28;20033;-76
2023/05/12 04:55:01;;;;;;;33.10;20.55;;;;;;;10.98;100.00;101372.31;5009716;28;20037;-77
2023/05/12 04:57:26;;;;;;;34.88;21.63;;;;;;;10.98;100.00;101374.94;5024050;28;20033;-77
2023/05/12 04:59:54;;;;;;;35.60;21.38;;;;;;;10.98;100.00;101378.41;5029487;28;20026;-76
2023/05/12 05:02:19;;;;;;;35.95;21.30;;;;;;;10.97;100.00;101374.09;5023801;28;20342;-76
2023/05/12 05:04:45;;;;;;;33.80;21.38;;;;;;;10.99;100.00;101371.38;5030263;28;20536;-76
2023/05/12 05:07:11;;;;;;;35.38;21.42;;;;;;;10.99;100.00;101377.47;5032087;28;20113;-76
2023/05/12 05:09:36;;;;;;;36.00;22.67;;;;;;;10.99;100.00;101381.91;5012961;28;20041;-74
2023/05/12 05:12:05;;;;;;;38.90;23.70;;;;;;;11.00;100.00;101386.22;5008423;28;20025;-76
2023/05/12 05:14:30;;;;;;;43.40;25.55;;;;;;;10.99;100.00;101380.09;5027539;28;20021;-77
2023/05/12 05:16:55;;;;;;;46.90;27.13;;;;;;;11.01;100.00;101380.00;5030089;28;20037;-77
2023/05/12 05:19:21;;;;;;;47.20;28.15;;;;;;;11.04;100.00;101381.59;5029263;28;20053;-77
2023/05/12 05:21:47;;;;;;;51.50;29.42;;;;;;;11.08;100.00;101383.06;5028084;28;20044;-77
2023/05/12 05:24:12;;;;;;;54.85;30.45;;;;;;;11.10;100.00;101389.91;5027155;28;20025;-77
2023/05/12 05:26:37;;;;;;;55.53;30.83;;;;;;;11.10;100.00;101389.91;5026322;28;20743;-77
2023/05/12 05:29:03;;;;;;;51.88;30.40;;;;;;;11.11;100.00;101402.13;5028969;28;20026;-76
2023/05/12 05:31:32;;;;;;;54.33;31.77;;;;;;;11.14;100.00;101388.75;5028354;28;20033;-76
2023/05/12 05:33:57;;;;;;;56.78;33.03;;;;;;;11.18;100.00;101397.28;5029334;28;20025;-76
2023/05/12 05:36:25;;;;;;;52.42;32.85;;;;;;;11.21;100.00;101397.94;5043493;28;20155;-76
2023/05/12 05:38:50;;;;;;;59.20;33.83;;;;;;;11.23;100.00;101393.44;5029260;28;20014;-76
2023/05/12 05:41:16;;;;;;;55.33;31.90;;;;;;;11.30;100.00;101393.84;5028556;28;20048;-76
2023/05/12 05:43:41;;;;;;;55.53;34.20;;;;;;;11.33;100.00;101398.06;5019122;28;20137;-76
2023/05/12 05:46:06;;;;;;;57.03;33.65;;;;;;;11.37;100.00;101407.44;5009513;28;20479;-76
2023/05/12 05:48:32;;;;;;;57.67;34.83;;;;;;;11.41;100.00;101406.28;5009718;28;20034;-76
2023/05/12 05:50:57;;;;;;;55.97;33.28;;;;;;;11.42;100.00;101407.97;5028160;28;20112;-76
2023/05/12 05:53:22;;;;;;;59.58;35.45;;;;;;;11.44;100.00;101412.19;5029264;28;20527;-76
2023/05/12 05:55:48;;;;;;;57.85;35.65;;;;;;;11.49;100.00;101411.84;5028390;28;20041;-77
2023/05/12 05:58:14;;;;;;;60.53;36.55;;;;;;;11.52;100.00;101414.28;5026529;28;20028;-78
2023/05/12 06:00:41;;;;;;;57.88;35.58;;;;;;;11.56;100.00;101413.97;5021084;28;20034;-76
2023/05/12 06:03:06;;;;;;;57.47;36.10;;;;;;;11.60;100.00;101419.84;5027601;28;20060;-77
2023/05/12 06:05:32;;;;;;;54.75;34.47;;;;;;;11.64;100.00;101416.09;5027584;28;20128;-76
2023/05/12 06:07:57;;;;;;;59.70;35.70;;;;;;;11.65;100.00;101430.97;5028222;28;20041;-76
2023/05/12 06:10:24;;;;;;;59.13;36.58;;;;;;;11.69;100.00;101432.44;5028258;28;20033;-76
2023/05/12 06:12:49;;;;;;;56.33;35.50;;;;;;;11.70;100.00;101434.13;5028711;28;20040;-76
2023/05/12 06:15:15;;;;;;;53.08;34.88;;;;;;;11.76;100.00;101431.03;5029737;28;20406;-76
2023/05/12 06:17:40;;;;;;;57.67;35.85;;;;;;;11.77;100.00;101445.91;5026648;28;20033;-76
2023/05/12 06:20:08;;;;;;;58.33;36.72;;;;;;;11.79;100.00;101451.97;5029872;28;20425;-76
2023/05/12 06:22:35;;;;;;;53.53;35.25;;;;;;;11.81;100.00;101452.69;5030279;28;20120;-76
2023/05/12 06:25:01;;;;;;;57.03;36.25;;;;;;;11.85;100.00;101451.53;5031585;28;20018;-76
2023/05/12 06:27:26;;;;;;;51.58;35.50;;;;;;;11.91;100.00;101456.38;5036401;28;20116;-76
2023/05/12 06:29:52;;;;;;;52.22;36.33;;;;;;;11.96;100.00;101457.84;5019411;28;20394;-76
2023/05/12 06:32:18;;;;;;;53.97;36.35;;;;;;;12.00;100.00;101462.78;5031007;28;20071;-76
2023/05/12 06:34:43;;;;;;;56.00;38.00;;;;;;;12.12;100.00;101464.59;5012613;28;20512;-76
2023/05/12 06:37:08;;;;;;;50.95;35.97;;;;;;;12.21;100.00;101465.72;5018999;28;20029;-76
2023/05/12 06:39:33;;;;;;;46.72;34.92;;;;;;;12.29;100.00;101471.28;5031807;28;20025;-77
2023/05/12 06:42:04;;;;;;;50.53;35.15;;;;;;;12.38;100.00;101480.34;5031379;28;20076;-76
2023/05/12 06:44:30;;;;;;;52.53;36.65;;;;;;;12.50;100.00;101475.06;5031371;28;20025;-76
2023/05/12 06:46:55;;;;;;;47.40;34.90;;;;;;;12.61;100.00;101478.72;5031673;28;20495;-76
2023/05/12 06:49:20;;;;;;;42.97;34.10;;;;;;;12.69;100.00;101479.84;5030459;28;20021;-76
2023/05/12 06:51:46;;;;;;;46.75;34.72;;;;;;;12.82;100.00;101472.72;5029613;28;20021;-76
2023/05/12 06:54:15;;;;;;;38.65;32.67;;;;;;;12.87;100.00;101477.66;5029259;28;20108;-76
2023/05/12 06:56:40;;;;;;;41.13;33.30;;;;;;;12.98;100.00;101476.88;5030247;28;20053;-76
2023/05/12 06:59:06;;;;;;;35.63;30.40;;;;;;;13.04;100.00;101485.19;5023959;28;20108;-76
2023/05/12 07:01:35;;;;;;;35.13;30.20;;;;;;;13.12;100.00;101476.66;5010585;28;20045;-76
2023/05/12 07:04:01;;;;;;;33.50;30.00;;;;;;;13.17;100.00;101490.41;5018904;28;20033;-76
2023/05/12 07:06:26;;;;;;;30.42;27.25;;;;;;;13.26;100.00;101494.19;5032306;28;20104;-76
2023/05/12 07:08:53;;;;;;;30.15;27.08;;;;;;;13.32;100.00;101493.72;5031230;28;20049;-76
2023/05/12 07:11:21;;;;;;;29.40;26.38;;;;;;;13.42;100.00;101484.13;5029920;28;20374;-76
2023/05/12 07:13:50;;;;;;;29.13;25.98;;;;;;;13.52;100.00;101495.69;5030863;28;20021;-76
2023/05/12 07:16:17;;;;;;;28.48;25.73;;;;;;;13.57;100.00;101498.81;5030733;28;20033;-76
2023/05/12 07:18:44;;;;;;;27.38;24.58;;;;;;;13.59;100.00;101499.56;5031275;28;20028;-76
2023/05/12 07:21:09;;;;;;;25.92;23.38;;;;;;;13.57;100.00;101501.47;5030040;28;20478;-76
2023/05/12 07:23:37;;;;;;;26.13;23.73;;;;;;;13.64;100.00;101509.81;5031293;28;20036;-76
2023/05/12 07:26:06;;;;;;;21.88;19.88;;;;;;;13.66;100.00;101516.66;5039433;28;20029;-77
2023/05/12 07:28:36;;;;;;;20.45;18.65;;;;;;;13.69;100.00;101505.00;5038869;28;20038;-75
2023/05/12 07:31:06;;;;;;;20.98;18.95;;;;;;;13.72;100.00;101502.97;5029918;28;20021;-75
2023/05/12 07:33:33;;;;;;;20.77;18.83;;;;;;;13.74;100.00;101506.34;5031444;28;20053;-75
2023/05/12 07:36:01;;;;;;;18.05;16.45;;;;;;;13.78;100.00;101510.44;5029856;28;20033;-75
2023/05/12 07:38:33;;;;;;;17.67;16.02;;;;;;;13.77;100.00;101500.81;5029435;28;20308;-75
2023/05/12 07:40:58;;;;;;;18.48;16.88;;;;;;;13.84;100.00;101514.41;5031194;28;20160;-75
2023/05/12 07:43:24;;;;;;;17.67;16.05;;;;;;;13.93;100.00;101515.47;5029675;28;20554;-75
2023/05/12 07:45:49;;;;;;;16.15;14.57;;;;;;;14.10;100.00;101512.38;5029747;28;20497;-75
2023/05/12 07:48:15;;;;;;;14.93;13.45;;;;;;;14.32;100.00;101512.38;5030467;28;20025;-75
2023/05/12 07:50:42;;;;;;;14.60;13.25;;;;;;;14.57;100.00;101521.91;5030569;28;20029;-75
2023/05/12 07:53:10;;;;;;;12.82;11.60;;;;;;;14.77;100.00;101525.59;5030513;28;20029;-76
2023/05/12 07:55:35;;;;;;;10.13;9.23;;;;;;;14.75;100.00;101532.81;5029784;28;20465;-75
2023/05/12 07:58:01;;;;;;;10.85;9.63;;;;;;;14.79;100.00;101528.94;5030093;28;20108;-75
2023/05/12 08:00:27;;;;;;;8.45;7.65;;;;;;;14.95;100.00;101532.06;5029608;28;20099;-73
2023/05/12 08:02:53;;;;;;;8.05;7.35;;;;;;;14.91;100.00;101525.31;5031002;28;20486;-73
2023/05/12 08:05:18;;;;;;;8.90;8.10;;;;;;;14.87;100.00;101531.84;5029731;28;20029;-73
2023/05/12 08:07:45;;;;;;;10.65;9.30;;;;;;;14.93;100.00;101538.44;5037865;28;20021;-73
2023/05/12 08:10:14;;;;;;;9.23;8.27;;;;;;;15.09;100.00;101538.88;5050487;28;20061;-75
2023/05/12 08:12:42;;;;;;;9.80;8.15;;;;;;;15.43;100.00;101542.25;5031605;28;20026;-73
2023/05/12 08:15:08;;;;;;;10.70;8.25;;;;;;;15.40;99.89;101537.19;5028997;28;20398;-73
2023/05/12 08:17:34;;;;;;;8.02;7.32;;;;;;;15.32;98.55;101547.59;5029643;28;20088;-73
2023/05/12 08:20:07;;;;;;;8.20;7.40;;;;;;;15.07;97.78;101545.25;5030134;28;20117;-74
2023/05/12 08:22:33;;;;;;;9.60;8.75;;;;;;;14.97;98.12;101546.03;5017112;28;20029;-75
2023/05/12 08:24:58;;;;;;;8.40;7.60;;;;;;;15.00;99.73;101540.47;5009966;28;20389;-74
2023/05/12 08:27:28;;;;;;;9.43;8.63;;;;;;;15.19;100.00;101541.59;5048264;28;20031;-73
2023/05/12 08:29:54;;;;;;;8.63;7.85;;;;;;;15.47;96.60;101538.34;5044607;28;20079;-73
2023/05/12 08:32:21;;;;;;;8.60;7.57;;;;;;;15.63;95.91;101544.09;5026371;28;20033;-73
2023/05/12 08:34:46;;;;;;;8.55;7.05;;;;;;;15.59;95.61;101552.44;5032839;28;20029;-73
2023/05/12 08:37:12;;;;;;;8.32;7.47;;;;;;;15.65;97.80;101552.78;5027622;28;20037;-73
2023/05/12 08:39:38;;;;;;;8.77;7.88;;;;;;;15.74;95.42;101547.66;5024939;28;20023;-74
2023/05/12 08:42:13;;;;;;;7.20;6.55;;;;;;;15.92;94.26;101554.06;5028341;28;20049;-75
2023/05/12 08:44:39;;;;;;;7.53;6.82;;;;;;;16.35;94.91;101558.31;5028017;28;20032;-75
2023/05/12 08:47:05;;;;;;;6.65;6.05;;;;;;;16.59;94.06;101551.72;5028690;28;20033;-76
2023/05/12 08:49:34;;;;;;;6.25;5.65;;;;;;;16.55;88.98;101558.28;5029815;28;20111;-75
2023/05/12 08:52:06;;;;;;;5.55;5.05;;;;;;;16.33;87.08;101557.63;5027952;28;20095;-75
2023/05/12 08:54:34;;;;;;;5.93;4.90;;;;;;;16.21;88.26;101559.53;5029574;28;20033;-75
2023/05/12 08:57:03;;;;;;;5.93;5.25;;;;;;;16.16;87.63;101561.75;5027847;28;20033;-75
2023/05/12 08:59:32;;;;;;;6.18;4.90;;;;;;;16.24;88.44;101561.91;5022701;28;20104;-75
2023/05/12 09:01:58;;;;;;;5.68;4.90;;;;;;;16.32;86.41;101571.88;5027142;28;20056;-74
2023/05/12 09:04:23;;;;;;;6.15;4.78;;;;;;;16.35;86.83;101561.81;5027775;28;20053;-75
2023/05/12 09:06:50;;;;;;;6.57;4.50;;;;;;;16.47;nan;101565.25;5028265;28;20490;-75
2023/05/12 09:09:16;;;;;;;5.15;4.38;;;;;;;16.79;83.48;101570.38;5026279;28;20033;-75
2023/05/12 09:11:43;;;;;;;5.63;4.22;;;;;;;16.96;84.87;101560.94;5015419;28;20505;-75
2023/05/12 09:14:17;;;;;;;4.30;3.88;;;;;;;17.07;82.60;101580.25;5021146;28;20029;-75
2023/05/12 09:16:47;;;;;;;4.85;3.60;;;;;;;17.22;83.17;101570.91;5016422;28;20030;-75
2023/05/12 09:19:20;;;;;;;5.88;3.53;;;;;;;17.30;80.41;101572.88;5025902;28;20025;-75
2023/05/12 09:21:46;;;;;;;5.53;3.25;;;;;;;17.28;79.92;101568.69;5028656;28;20028;-75
2023/05/12 09:24:12;;;;;;;3.60;3.28;;;;;;;17.39;76.47;101569.38;5028797;28;20025;-75
2023/05/12 09:26:51;;;;;;;6.13;3.35;;;;;;;17.57;79.48;101556.19;5029487;28;20037;-75
2023/05/12 09:29:17;;;;;;;3.00;2.70;;;;;;;17.50;78.19;101571.88;5026129;28;20028;-75
2023/05/12 09:31:50;;;;;;;4.45;2.80;;;;;;;17.51;75.94;101573.56;5028209;28;20037;-75
2023/05/12 09:34:16;;;;;;;3.15;2.83;;;;;;;17.71;79.28;101570.94;5026119;28;20024;-75
2023/05/12 09:36:53;;;;;;;5.28;2.90;;;;;;;18.00;74.49;101566.38;5027330;28;20037;-75
2023/05/12 09:39:19;;;;;;;3.88;2.70;;;;;;;18.31;73.76;101566.16;5023527;28;20021;-75
2023/05/12 09:41:44;;;;;;;3.97;3.33;;;;;;;18.20;72.22;101569.00;5027756;28;20039;-76
2023/05/12 09:44:15;;;;;;;4.50;3.33;;;;;;;18.30;71.04;101572.47;5029070;28;20105;-75
2023/05/12 09:46:40;;;;;;;3.65;2.83;;;;;;;18.14;72.39;101568.59;5029601;28;20032;-76
2023/05/12 09:49:06;;;;;;;8.68;3.25;;;;;;;18.17;75.05;101570.97;5031244;28;20025;-76
2023/05/12 09:51:33;;;;;;;3.28;2.95;;;;;;;18.28;73.60;101577.94;5030275;28;20482;-76
2023/05/12 09:54:01;;;;;;;3.97;2.85;;;;;;;18.17;70.42;101570.97;5032488;28;20034;-75
2023/05/12 09:56:28;;;;;;;4.75;2.83;;;;;;;18.95;69.70;101582.16;5031064;28;20017;-75
2023/05/12 09:58:56;;;;;;;5.57;2.30;;;;;;;18.91;69.76;101569.28;5033171;28;20096;-75
2023/05/12 10:01:22;;;;;;;7.07;2.97;;;;;;;18.64;67.44;101583.44;5029135;28;20083;-75
2023/05/12 10:03:55;;;;;;;3.72;2.60;;;;;;;18.67;69.25;101583.97;5031504;28;20108;-75
2023/05/12 10:06:32;;;;;;;3.50;2.92;;;;;;;18.69;68.63;101586.50;5029966;28;20025;-75
2023/05/12 10:09:04;;;;;;;2.50;2.30;;;;;;;18.44;66.47;101582.66;5032146;28;20107;-75
2023/05/12 10:11:30;;;;;;;4.57;2.33;;;;;;;18.13;67.33;101585.56;5032669;28;20053;-75
2023/05/12 10:13:57;;;;;;;5.15;2.47;;;;;;;18.13;67.05;101596.22;5033149;28;20098;-75
2023/05/12 10:16:23;;;;;;;4.10;2.58;;;;;;;18.38;67.05;101593.88;5032077;28;20429;-75
2023/05/12 10:18:50;;;;;;;2.45;1.95;;;;;;;18.82;65.39;101591.50;5031741;28;20017;-76
2023/05/12 10:21:15;;;;;;;2.15;1.95;;;;;;;19.07;63.79;101580.09;5032367;28;20025;-75
2023/05/12 10:23:43;;;;;;;3.83;2.58;;;;;;;18.93;61.50;101593.97;5032984;28;20029;-75
2023/05/12 10:26:10;;;;;;;3.17;2.40;;;;;;;18.68;65.48;101585.66;5023077;28;20045;-75
2023/05/12 10:28:36;;;;;;;11.05;3.05;;;;;;;18.54;65.34;101586.13;5029672;28;20492;-75
2023/05/12 10:31:03;;;;;;;4.40;2.60;;;;;;;18.76;66.77;101584.91;5031544;28;20057;-75
2023/05/12 10:33:28;;;;;;;2.88;2.03;;;;;;;18.95;65.12;101581.31;5032407;28;20029;-75
2023/05/12 10:35:54;;;;;;;2.72;2.53;;;;;;;18.98;62.16;101592.53;5029455;28;20056;-75
2023/05/12 10:38:24;;;;;;;2.50;2.30;;;;;;;18.94;63.49;101582.31;5027289;28;20152;-75
2023/05/12 10:40:57;;;;;;;4.38;2.20;;;;;;;18.99;65.79;101582.69;5022762;28;20481;-75
2023/05/12 10:43:25;;;;;;;2.95;2.50;;;;;;;19.09;63.85;101588.78;5028102;28;20052;-75
2023/05/12 10:46:21;;;;;;;3.25;2.15;;;;;;;19.50;65.37;101592.69;5029062;28;20029;-75
2023/05/12 10:49:09;;;;;;;3.05;2.20;;;;;;;19.76;62.84;101581.28;5026479;28;20042;-75
2023/05/12 10:51:49;;;;;;;3.60;2.13;;;;;;;19.87;59.97;101589.03;5033656;28;20044;-74
2023/05/12 10:54:24;;;;;;;2.80;1.75;;;;;;;19.68;57.97;101606.94;5031203;28;20025;-75
2023/05/12 10:56:50;;;;;;;4.07;1.80;;;;;;;19.53;58.39;101591.59;5030932;28;20297;-74
2023/05/12 10:59:28;;;;;;;3.22;1.90;;;;;;;19.44;58.61;101600.50;5024991;28;20017;-75
2023/05/12 11:01:57;;;;;;;4.05;1.90;;;;;;;19.33;57.61;101602.41;5023767;28;20051;-74
2023/05/12 11:04:33;;;;;;;5.65;2.40;;;;;;;19.17;58.61;101588.88;5026183;28;20232;-74
2023/05/12 11:07:08;;;;;;;4.65;2.10;;;;;;;19.36;59.07;101596.75;5031519;28;20091;-75
2023/05/12 11:09:45;;;;;;;2.50;2.20;;;;;;;19.35;58.29;101595.06;5031221;28;20641;-75
2023/05/12 11:12:12;;;;;;;6.00;1.88;;;;;;;19.56;58.45;101599.28;5029262;28;20086;-75